Time;durP1;ratioP1;P1;durP2;ratioP2;P2;SDS_P1;SDS_P2;PMS_P1;PMS_P2;Temp;Humidity;BMP_temperature;BMP_pressure;BME280_temperature;BME280_humidity;BME280_pressure;Samples;Min_cycle;Max_cycle;Signal;HPM_P1;HPM_P2
2023/07/21 00:01:07;;;;;;;0.10;0.10;;;24.80;99.90;;;;;;5036727;28;20232;-76
2023/07/21 00:03:34;;;;;;;0.13;0.13;;;24.80;99.90;;;;;;5036647;28;20225;-77
2023/07/21 00:06:00;;;;;;;0.00;0.00;;;24.40;99.90;;;;;;5036153;28;20063;-77
2023/07/21 00:08:28;;;;;;;0.10;0.10;;;24.10;99.90;;;;;;5035365;28;20092;-76
2023/07/21 00:10:58;;;;;;;0.10;0.10;;;24.10;99.90;;;;;;5036999;28;20702;-82
2023/07/21 00:13:27;;;;;;;0.20;0.20;;;24.20;99.90;;;;;;5036538;28;20698;-76
2023/07/21 00:15:54;;;;;;;0.40;0.40;;;24.20;99.90;;;;;;5036976;28;20025;-73
2023/07/21 00:18:21;;;;;;;0.10;0.10;;;24.20;99.90;;;;;;5036808;28;20100;-70
2023/07/21 00:20:49;;;;;;;0.10;0.10;;;24.20;99.90;;;;;;5036895;28;20022;-74
2023/07/21 00:23:17;;;;;;;1.83;1.73;;;24.20;99.90;;;;;;5036793;28;20028;-79
2023/07/21 00:25:45;;;;;;;0.35;0.32;;;24.30;99.90;;;;;;5037015;28;20100;-73
2023/07/21 00:28:11;;;;;;;0.10;0.10;;;24.30;99.90;;;;;;5036495;28;20112;-73
2023/07/21 00:30:37;;;;;;;1.33;1.23;;;23.80;99.90;;;;;;5036497;28;20032;-73
2023/07/21 00:33:03;;;;;;;0.10;0.10;;;23.50;99.90;;;;;;5036007;28;20029;-72
2023/07/21 00:35:30;;;;;;;3.80;2.72;;;23.50;99.90;;;;;;5036236;28;20029;-76
2023/07/21 00:38:01;;;;;;;0.10;0.10;;;23.80;99.90;;;;;;5036447;28;20108;-72
2023/07/21 00:40:27;;;;;;;0.10;0.10;;;24.00;99.90;;;;;;5036110;28;20015;-73
2023/07/21 00:42:54;;;;;;;0.15;0.15;;;23.90;99.90;;;;;;5036222;28;20702;-76
2023/07/21 00:45:20;;;;;;;0.40;0.40;;;23.90;99.90;;;;;;5036374;28;20025;-74
2023/07/21 00:47:47;;;;;;;0.10;0.10;;;23.90;99.90;;;;;;5035866;28;20029;-75
2023/07/21 00:50:14;;;;;;;0.20;0.20;;;24.00;99.90;;;;;;5036528;28;20017;-72
2023/07/21 00:52:40;;;;;;;0.08;0.08;;;23.90;99.90;;;;;;5036361;28;20017;-79
2023/07/21 00:55:07;;;;;;;0.25;0.25;;;23.80;99.90;;;;;;5037082;28;20186;-78
2023/07/21 00:57:33;;;;;;;0.20;0.20;;;23.50;99.90;;;;;;5040167;28;20041;-75
2023/07/21 01:00:00;;;;;;;0.10;0.10;;;23.50;99.90;;;;;;5040010;28;20013;-76
2023/07/21 01:02:27;;;;;;;1.05;0.98;;;23.20;99.90;;;;;;5039202;28;20048;-76
2023/07/21 01:04:54;;;;;;;0.40;0.40;;;23.60;99.90;;;;;;5039133;28;20268;-75
2023/07/21 01:07:21;;;;;;;0.10;0.10;;;23.50;99.90;;;;;;5038413;28;20037;-77
2023/07/21 01:09:47;;;;;;;0.10;0.10;;;23.00;99.90;;;;;;5039717;28;20096;-76
2023/07/21 01:12:13;;;;;;;0.22;0.22;;;22.80;99.90;;;;;;5039025;28;20049;-75
2023/07/21 01:14:40;;;;;;;0.50;0.38;;;22.90;99.90;;;;;;5039602;28;20032;-72
2023/07/21 01:17:07;;;;;;;0.50;0.50;;;23.10;99.90;;;;;;5039291;28;20028;-73
2023/07/21 01:19:36;;;;;;;0.10;0.10;;;22.80;99.90;;;;;;5040486;28;20052;-73
2023/07/21 01:22:24;;;;;;;0.10;0.10;;;22.80;99.90;;;;;;5040617;28;20021;-75
2023/07/21 01:24:49;;;;;;;0.00;0.00;;;23.10;99.90;;;;;;5040342;28;20025;-78
2023/07/21 01:27:20;;;;;;;0.10;0.10;;;22.70;99.90;;;;;;5039517;28;20714;-74
2023/07/21 01:29:46;;;;;;;0.13;0.13;;;22.60;99.90;;;;;;5039483;28;20025;-73
2023/07/21 01:32:15;;;;;;;0.10;0.10;;;22.90;99.90;;;;;;5040528;28;20503;-79
2023/07/21 01:34:42;;;;;;;0.10;0.10;;;22.80;99.90;;;;;;5040265;28;20017;-84
2023/07/21 01:37:10;;;;;;;0.00;0.00;;;22.90;99.90;;;;;;5038559;28;20116;-72
2023/07/21 01:39:39;;;;;;;0.38;0.38;;;23.00;99.90;;;;;;5040615;28;20028;-81
2023/07/21 01:42:06;;;;;;;0.00;0.00;;;23.10;99.90;;;;;;5042027;28;20021;-82
2023/07/21 01:44:35;;;;;;;0.20;0.20;;;22.10;99.90;;;;;;5044879;28;20102;-73
2023/07/21 01:47:04;;;;;;;0.00;0.00;;;23.00;99.90;;;;;;5044347;28;20021;-73
2023/07/21 01:49:30;;;;;;;0.55;0.55;;;23.10;99.90;;;;;;5047714;28;20202;-72
2023/07/21 01:51:57;;;;;;;1.27;1.27;;;23.00;99.90;;;;;;5041004;28;20021;-72
2023/07/21 01:54:31;;;;;;;0.00;0.00;;;22.90;99.90;;;;;;5040052;28;20546;-73
2023/07/21 01:57:03;;;;;;;0.00;0.00;;;22.80;99.90;;;;;;5040468;28;20013;-77
2023/07/21 01:59:29;;;;;;;0.13;0.13;;;22.90;99.90;;;;;;5039890;28;20756;-87
2023/07/21 02:01:56;;;;;;;0.00;0.00;;;23.00;99.90;;;;;;5039528;28;20025;-74
2023/07/21 02:04:23;;;;;;;0.10;0.10;;;23.30;99.90;;;;;;5038837;28;20028;-73
2023/07/21 02:06:50;;;;;;;2.33;2.13;;;23.30;99.90;;;;;;5040911;28;20044;-88
2023/07/21 02:09:16;;;;;;;0.10;0.10;;;23.40;99.90;;;;;;5039630;28;20037;-75
2023/07/21 02:11:44;;;;;;;0.00;0.00;;;23.50;99.90;;;;;;5042245;28;20024;-83
2023/07/21 02:14:10;;;;;;;0.30;0.30;;;23.60;99.90;;;;;;5042069;28;20025;-80
2023/07/21 02:16:37;;;;;;;0.00;0.00;;;23.60;99.90;;;;;;5043806;28;20024;-79
2023/07/21 02:19:06;;;;;;;0.00;0.00;;;;;;;;;;5037562;28;20782;-72
2023/07/21 02:21:32;;;;;;;0.10;0.10;;;22.90;99.90;;;;;;5036926;28;20568;-73
2023/07/21 02:23:58;;;;;;;0.10;0.10;;;22.80;99.90;;;;;;5036373;28;20029;-73
2023/07/21 02:26:24;;;;;;;0.10;0.10;;;22.80;99.90;;;;;;5037440;28;20070;-75
2023/07/21 02:28:50;;;;;;;0.10;0.10;;;22.50;99.90;;;;;;5038027;28;20145;-81
2023/07/21 02:31:16;;;;;;;0.85;0.85;;;22.20;99.90;;;;;;5037893;28;20677;-74
2023/07/21 02:33:42;;;;;;;0.68;0.68;;;21.90;99.90;;;;;;5037990;28;20761;-75
2023/07/21 02:36:07;;;;;;;1.15;1.05;;;21.70;99.90;;;;;;5037878;28;20068;-74
2023/07/21 02:38:33;;;;;;;0.13;0.13;;;21.60;99.90;;;;;;5038305;28;20048;-74
2023/07/21 02:41:03;;;;;;;0.10;0.10;;;21.40;99.90;;;;;;5038147;28;20013;-73
2023/07/21 02:43:29;;;;;;;0.10;0.10;;;21.30;99.90;;;;;;5038218;28;20020;-77
2023/07/21 02:45:55;;;;;;;0.10;0.10;;;21.10;99.90;;;;;;5038289;28;20029;-73
2023/07/21 02:48:22;;;;;;;0.10;0.10;;;21.10;99.90;;;;;;5037866;28;20226;-78
2023/07/21 02:50:51;;;;;;;0.55;0.55;;;20.90;99.90;;;;;;5037977;28;20636;-77
2023/07/21 02:53:18;;;;;;;0.10;0.10;;;20.90;99.90;;;;;;5036717;28;20024;-77
2023/07/21 02:55:45;;;;;;;0.10;0.10;;;20.90;99.90;;;;;;5036700;28;20025;-75
2023/07/21 02:58:13;;;;;;;0.60;0.60;;;20.80;99.90;;;;;;5038255;28;20045;-82
2023/07/21 03:00:39;;;;;;;1.45;1.35;;;20.80;99.90;;;;;;5036427;28;20038;-76
2023/07/21 03:03:06;;;;;;;0.10;0.10;;;20.70;99.90;;;;;;5035838;28;20680;-72
2023/07/21 03:05:33;;;;;;;1.10;1.00;;;20.40;99.90;;;;;;5037164;28;20021;-73
2023/07/21 03:08:00;;;;;;;0.10;0.10;;;20.30;99.90;;;;;;5037851;28;20032;-74
2023/07/21 03:10:26;;;;;;;0.10;0.10;;;20.60;99.90;;;;;;5037415;28;20021;-73
2023/07/21 03:12:52;;;;;;;0.00;0.00;;;20.10;99.90;;;;;;5037470;28;20025;-79
2023/07/21 03:15:17;;;;;;;0.38;0.38;;;20.10;99.90;;;;;;5037445;28;20692;-73
2023/07/21 03:17:43;;;;;;;0.00;0.00;;;20.00;99.90;;;;;;5037659;28;20021;-74
2023/07/21 03:20:14;;;;;;;0.35;0.35;;;20.30;99.90;;;;;;5037417;28;20105;-78
2023/07/21 03:22:44;;;;;;;0.10;0.10;;;20.70;99.90;;;;;;5037459;28;20025;-78
2023/07/21 03:25:10;;;;;;;0.10;0.10;;;21.00;99.90;;;;;;5037587;28;20075;-77
2023/07/21 03:27:39;;;;;;;0.10;0.10;;;21.50;99.90;;;;;;5037489;28;20321;-78
2023/07/21 03:30:10;;;;;;;0.10;0.10;;;21.80;99.90;;;;;;5037950;28;20036;-80
2023/07/21 03:32:36;;;;;;;0.10;0.10;;;21.80;99.90;;;;;;5037957;28;20020;-78
2023/07/21 03:35:04;;;;;;;0.10;0.10;;;21.50;99.90;;;;;;5037602;28;20578;-73
2023/07/21 03:37:34;;;;;;;0.10;0.10;;;21.60;99.90;;;;;;5037936;28;20041;-75
2023/07/21 03:40:06;;;;;;;0.10;0.10;;;21.60;99.90;;;;;;5038086;28;20268;-77
2023/07/21 03:42:34;;;;;;;0.85;0.82;;;21.60;99.90;;;;;;5039352;28;20013;-77
2023/07/21 03:45:06;;;;;;;0.10;0.10;;;21.70;99.90;;;;;;5040543;28;20070;-81
2023/07/21 03:47:33;;;;;;;0.20;0.20;;;21.80;99.90;;;;;;5039717;28;20048;-73
2023/07/21 03:49:59;;;;;;;0.32;0.32;;;21.40;99.90;;;;;;5040221;28;20430;-81
2023/07/21 03:52:27;;;;;;;0.10;0.10;;;21.80;99.90;;;;;;5039055;28;20013;-73
2023/07/21 03:54:53;;;;;;;0.10;0.10;;;21.50;99.90;;;;;;5038799;28;20025;-73
2023/07/21 03:57:20;;;;;;;0.75;0.75;;;21.40;99.90;;;;;;5038863;28;20021;-83
2023/07/21 03:59:49;;;;;;;13.85;2.72;;;21.70;99.90;;;;;;5038124;28;20118;-74
2023/07/21 04:02:17;;;;;;;0.10;0.10;;;22.00;99.90;;;;;;5037902;28;20500;-81
2023/07/21 04:04:46;;;;;;;2.72;2.05;;;22.10;99.90;;;;;;5037428;28;20648;-74
2023/07/21 04:07:13;;;;;;;0.35;0.35;;;22.20;99.90;;;;;;5036884;28;20655;-74
2023/07/21 04:09:39;;;;;;;0.10;0.10;;;22.40;99.90;;;;;;5037602;28;20475;-73
2023/07/21 04:12:06;;;;;;;0.10;0.10;;;22.70;99.90;;;;;;5037237;28;20100;-74
2023/07/21 04:14:31;;;;;;;0.10;0.10;;;22.80;99.90;;;;;;5037517;28;20017;-80
2023/07/21 04:16:57;;;;;;;0.05;0.05;;;22.90;99.90;;;;;;5037078;28;20025;-74
2023/07/21 04:19:25;;;;;;;0.03;0.03;;;23.00;99.90;;;;;;5037084;28;20079;-83
2023/07/21 04:21:52;;;;;;;0.57;0.30;;;23.10;99.90;;;;;;5036342;28;20009;-75
2023/07/21 04:24:19;;;;;;;0.10;0.10;;;23.20;99.90;;;;;;5037583;28;20112;-85
2023/07/21 04:26:44;;;;;;;0.10;0.10;;;23.20;99.90;;;;;;5036789;28;20597;-74
2023/07/21 04:29:10;;;;;;;0.50;0.50;;;23.30;99.90;;;;;;5037108;28;20725;-74
2023/07/21 04:31:36;;;;;;;0.10;0.10;;;23.30;99.90;;;;;;5041645;28;20571;-78
2023/07/21 04:34:02;;;;;;;0.10;0.10;;;23.40;99.90;;;;;;5044016;28;20029;-76
2023/07/21 04:36:27;;;;;;;0.10;0.10;;;23.40;99.90;;;;;;5042639;28;20090;-75
2023/07/21 04:38:54;;;;;;;0.10;0.10;;;23.40;99.90;;;;;;5041651;28;20104;-73
2023/07/21 04:41:20;;;;;;;0.45;0.45;;;23.40;99.90;;;;;;5041282;28;20025;-73
2023/07/21 04:43:45;;;;;;;0.10;0.10;;;23.40;99.90;;;;;;5041163;28;20021;-73
2023/07/21 04:46:12;;;;;;;0.10;0.10;;;23.60;99.90;;;;;;5040947;28;20025;-79
2023/07/21 04:48:38;;;;;;;5.60;3.60;;;23.40;99.90;;;;;;5039054;28;20106;-84
2023/07/21 04:51:03;;;;;;;0.10;0.10;;;23.50;99.90;;;;;;5039876;28;20104;-75
2023/07/21 04:53:30;;;;;;;1.55;1.45;;;23.60;99.90;;;;;;5039521;28;20108;-83
2023/07/21 04:55:57;;;;;;;0.45;0.45;;;23.70;99.90;;;;;;5039988;28;20312;-75
2023/07/21 04:58:24;;;;;;;2.10;2.00;;;23.70;99.90;;;;;;5039864;28;20104;-75
2023/07/21 05:00:50;;;;;;;3.13;2.25;;;23.80;99.90;;;;;;5040225;28;20022;-73
2023/07/21 05:03:15;;;;;;;0.73;0.57;;;23.70;99.90;;;;;;5040485;28;20040;-81
2023/07/21 05:05:43;;;;;;;1.10;1.10;;;23.90;99.90;;;;;;5040375;28;20723;-74
2023/07/21 05:08:09;;;;;;;1.77;1.67;;;23.90;99.90;;;;;;5040507;28;20108;-75
2023/07/21 05:10:35;;;;;;;0.93;0.93;;;24.00;99.90;;;;;;5040163;28;20096;-81
2023/07/21 05:13:01;;;;;;;0.10;0.10;;;24.00;99.90;;;;;;5040043;28;20544;-75
2023/07/21 05:15:26;;;;;;;16.88;3.75;;;24.00;99.90;;;;;;5040378;28;20104;-73
2023/07/21 05:17:52;;;;;;;0.95;0.95;;;24.10;99.90;;;;;;5040061;28;20024;-75
2023/07/21 05:20:19;;;;;;;0.75;0.75;;;24.10;99.90;;;;;;5040208;28;20044;-86
2023/07/21 05:22:46;;;;;;;0.25;0.25;;;24.10;99.90;;;;;;5038410;28;20540;-76
2023/07/21 05:25:16;;;;;;;1.55;1.20;;;23.80;99.90;;;;;;5040154;28;20100;-73
2023/07/21 05:27:42;;;;;;;0.63;0.60;;;24.10;99.90;;;;;;5040159;28;20122;-75
2023/07/21 05:30:11;;;;;;;0.10;0.10;;;24.10;99.90;;;;;;5038539;28;20656;-73
2023/07/21 05:32:39;;;;;;;1.02;0.95;;;24.20;99.90;;;;;;5039890;28;20032;-75
2023/07/21 05:35:07;;;;;;;1.50;1.40;;;24.30;99.90;;;;;;5040043;28;20509;-76
2023/07/21 05:37:33;;;;;;;1.08;1.02;;;24.40;99.90;;;;;;5039819;28;20545;-74
2023/07/21 05:39:58;;;;;;;1.95;1.63;;;24.70;99.90;;;;;;5038674;28;20021;-73
2023/07/21 05:42:24;;;;;;;0.00;0.00;;;24.50;99.90;;;;;;5039551;28;20024;-73
2023/07/21 05:44:50;;;;;;;0.00;0.00;;;24.50;99.90;;;;;;5039772;28;20704;-73
2023/07/21 05:47:16;;;;;;;0.80;0.80;;;24.50;99.90;;;;;;5039248;28;20111;-73
2023/07/21 05:49:41;;;;;;;5.55;5.15;;;21.70;99.90;;;;;;5039647;28;20110;-73
2023/07/21 05:52:07;;;;;;;0.63;0.63;;;24.40;99.90;;;;;;5039322;28;20017;-73
2023/07/21 05:54:33;;;;;;;0.28;0.28;;;24.50;99.90;;;;;;5039153;28;20028;-73
2023/07/21 05:56:59;;;;;;;0.38;0.38;;;24.50;99.90;;;;;;5037979;28;20032;-77
2023/07/21 05:59:25;;;;;;;0.10;0.10;;;24.90;99.90;;;;;;5039490;28;20037;-75
2023/07/21 06:01:52;;;;;;;0.10;0.10;;;;;;;;;;5038131;28;20037;-77
2023/07/21 06:04:17;;;;;;;0.95;0.60;;;24.90;99.90;;;;;;5038636;28;20626;-75
2023/07/21 06:06:43;;;;;;;0.63;0.63;;;;;;;;;;5038106;28;20089;-82
2023/07/21 06:09:09;;;;;;;0.10;0.10;;;24.90;99.90;;;;;;5039478;28;20025;-74
2023/07/21 06:11:35;;;;;;;0.10;0.10;;;24.90;99.90;;;;;;5039358;28;20023;-74
2023/07/21 06:14:02;;;;;;;0.43;0.43;;;24.70;99.90;;;;;;5038269;28;20032;-74
2023/07/21 06:16:27;;;;;;;0.00;0.00;;;24.70;99.90;;;;;;5038058;28;20017;-77
2023/07/21 06:18:53;;;;;;;0.10;0.10;;;24.70;99.90;;;;;;5037275;28;20082;-83
2023/07/21 06:21:23;;;;;;;1.15;0.98;;;24.60;99.90;;;;;;5037802;28;20522;-75
2023/07/21 06:23:48;;;;;;;0.00;0.00;;;24.60;99.90;;;;;;5037980;28;20220;-76
2023/07/21 06:26:15;;;;;;;0.00;0.00;;;24.70;99.90;;;;;;5038603;28;20626;-74
2023/07/21 06:28:41;;;;;;;0.98;0.93;;;24.60;99.90;;;;;;5038341;28;20025;-74
2023/07/21 06:31:08;;;;;;;1.73;1.45;;;24.50;99.90;;;;;;5039192;28;20017;-83
2023/07/21 06:33:34;;;;;;;0.13;0.13;;;24.60;99.90;;;;;;5040552;28;20033;-74
2023/07/21 06:36:00;;;;;;;0.10;0.10;;;24.80;99.90;;;;;;5039780;28;20020;-73
2023/07/21 06:38:25;;;;;;;5.28;1.15;;;24.60;99.90;;;;;;5038431;28;20720;-90
2023/07/21 06:40:51;;;;;;;0.10;0.10;;;24.90;99.90;;;;;;5039167;28;20009;-72
2023/07/21 06:43:17;;;;;;;0.30;0.30;;;24.50;99.90;;;;;;5038633;28;20025;-84
2023/07/21 06:45:43;;;;;;;0.57;0.57;;;24.90;99.90;;;;;;5038051;28;20023;-79
2023/07/21 06:48:11;;;;;;;2.70;1.15;;;25.70;99.90;;;;;;5039018;28;20025;-73
2023/07/21 06:50:38;;;;;;;1.17;0.68;;;25.20;99.90;;;;;;5039253;28;20028;-75
2023/07/21 06:53:05;;;;;;;0.10;0.10;;;;;;;;;;5037236;28;20048;-78
2023/07/21 06:55:34;;;;;;;2.17;1.98;;;25.50;99.90;;;;;;5037419;28;20474;-74
2023/07/21 06:58:00;;;;;;;0.40;0.40;;;25.60;99.90;;;;;;5038515;28;20045;-79
2023/07/21 07:00:26;;;;;;;0.40;0.40;;;26.10;99.90;;;;;;5037920;28;20056;-83
2023/07/21 07:02:53;;;;;;;0.00;0.00;;;25.90;99.90;;;;;;5037542;28;20072;-79
2023/07/21 07:05:19;;;;;;;0.50;0.50;;;26.10;99.90;;;;;;5037547;28;20090;-74
2023/07/21 07:07:45;;;;;;;0.30;0.30;;;26.00;99.90;;;;;;5038228;28;20300;-87
2023/07/21 07:10:11;;;;;;;0.10;0.10;;;26.10;99.90;;;;;;5039297;28;20045;-73
2023/07/21 07:12:38;;;;;;;0.00;0.00;;;25.20;99.90;;;;;;5038964;28;20048;-73
2023/07/21 07:15:05;;;;;;;0.00;0.00;;;25.90;99.90;;;;;;5037789;28;20021;-74
2023/07/21 07:17:31;;;;;;;8.45;2.17;;;25.90;99.90;;;;;;5038210;28;20016;-78
2023/07/21 07:19:57;;;;;;;0.10;0.10;;;26.10;99.90;;;;;;5038820;28;20027;-79
2023/07/21 07:22:23;;;;;;;0.13;0.13;;;26.30;99.90;;;;;;5039586;28;20284;-78
2023/07/21 07:24:48;;;;;;;0.63;0.63;;;26.00;99.90;;;;;;5037776;28;20021;-76
2023/07/21 07:27:14;;;;;;;0.05;0.05;;;26.20;99.90;;;;;;5038355;28;20466;-79
2023/07/21 07:29:40;;;;;;;1.27;0.98;;;26.40;99.90;;;;;;5038765;28;20052;-73
2023/07/21 07:32:07;;;;;;;0.00;0.00;;;26.40;99.90;;;;;;5038200;28;20019;-80
2023/07/21 07:34:32;;;;;;;0.20;0.20;;;26.50;99.90;;;;;;5037196;28;20686;-74
2023/07/21 07:36:59;;;;;;;2.53;2.33;;;26.80;99.90;;;;;;5036653;28;20021;-80
2023/07/21 07:39:24;;;;;;;2.28;0.90;;;27.00;99.90;;;;;;5033837;28;20080;-78
2023/07/21 07:41:51;;;;;;;0.00;0.00;;;26.80;99.90;;;;;;5022313;28;20097;-78
2023/07/21 07:44:18;;;;;;;1.73;1.13;;;27.00;99.90;;;;;;5018663;28;20018;-76
2023/07/21 07:46:44;;;;;;;0.10;0.10;;;26.20;99.90;;;;;;5018409;28;20022;-78
2023/07/21 07:49:10;;;;;;;0.10;0.10;;;27.20;99.90;;;;;;5017515;28;20708;-81
2023/07/21 07:51:38;;;;;;;3.13;2.92;;;27.40;99.90;;;;;;5017492;28;20018;-74
2023/07/21 07:54:05;;;;;;;0.10;0.10;;;27.50;99.90;;;;;;5015953;28;20057;-75
2023/07/21 07:56:31;;;;;;;0.10;0.10;;;27.70;99.90;;;;;;5016936;28;20029;-82
2023/07/21 07:58:57;;;;;;;0.17;0.17;;;27.80;99.90;;;;;;5026007;28;20670;-77
2023/07/21 08:01:23;;;;;;;0.03;0.03;;;27.70;99.90;;;;;;5035265;28;20135;-74
2023/07/21 08:03:52;;;;;;;0.10;0.10;;;27.90;99.90;;;;;;5037188;28;20511;-76
2023/07/21 08:06:17;;;;;;;0.25;0.25;;;28.00;99.90;;;;;;5039423;28;20028;-74
2023/07/21 08:08:43;;;;;;;1.17;0.93;;;28.20;99.90;;;;;;5037143;28;20033;-74
2023/07/21 08:11:09;;;;;;;0.10;0.10;;;28.10;99.90;;;;;;5028640;28;20172;-73
2023/07/21 08:13:35;;;;;;;0.38;0.32;;;28.30;99.90;;;;;;5021241;28;20032;-73
2023/07/21 08:16:04;;;;;;;0.20;0.20;;;28.50;99.90;;;;;;5025359;28;20229;-76
2023/07/21 08:18:30;;;;;;;0.82;0.80;;;28.60;99.90;;;;;;5020866;28;20100;-73
2023/07/21 08:20:55;;;;;;;0.35;0.30;;;28.60;99.90;;;;;;5020832;28;20431;-73
2023/07/21 08:23:21;;;;;;;0.10;0.10;;;28.70;99.90;;;;;;5037854;28;20021;-76
2023/07/21 08:25:47;;;;;;;0.30;0.28;;;28.80;99.90;;;;;;5038885;28;20751;-77
2023/07/21 08:28:12;;;;;;;0.35;0.30;;;28.90;99.90;;;;;;5040633;28;20029;-73
2023/07/21 08:30:38;;;;;;;0.30;0.30;;;29.10;99.90;;;;;;5040372;28;20017;-73
2023/07/21 08:33:04;;;;;;;0.10;0.10;;;29.30;99.90;;;;;;5040635;28;20633;-73
2023/07/21 08:35:30;;;;;;;0.25;0.25;;;29.40;99.90;;;;;;5040983;28;20025;-76
2023/07/21 08:37:58;;;;;;;0.17;0.17;;;29.50;99.90;;;;;;5040247;28;20096;-77
2023/07/21 08:40:24;;;;;;;1.40;1.30;;;29.60;99.90;;;;;;5040632;28;20027;-76
2023/07/21 08:42:50;;;;;;;0.65;0.40;;;29.60;99.90;;;;;;5040183;28;20009;-77
2023/07/21 08:45:19;;;;;;;0.20;0.20;;;29.70;99.90;;;;;;5039688;28;20029;-72
2023/07/21 08:47:45;;;;;;;1.65;1.00;;;29.90;99.90;;;;;;5039827;28;20025;-72
2023/07/21 08:50:17;;;;;;;1.38;0.32;;;30.30;99.90;;;;;;5039845;28;20032;-74
2023/07/21 08:52:42;;;;;;;0.52;0.52;;;30.20;99.90;;;;;;5037756;28;20083;-73
2023/07/21 08:55:09;;;;;;;0.20;0.20;;;30.10;99.70;;;;;;5031343;28;20045;-74
2023/07/21 08:57:35;;;;;;;0.00;0.00;;;30.30;99.60;;;;;;5035470;28;20038;-73
2023/07/21 09:00:03;;;;;;;0.70;0.60;;;30.30;98.80;;;;;;5036250;28;20104;-73
2023/07/21 09:02:40;;;;;;;0.30;0.30;;;30.40;98.40;;;;;;5030310;28;20702;-73
2023/07/21 09:05:06;;;;;;;0.35;0.35;;;30.50;97.70;;;;;;5033346;28;20025;-76
2023/07/21 09:07:32;;;;;;;7.97;1.65;;;30.80;98.10;;;;;;5037133;28;20611;-72
2023/07/21 09:09:57;;;;;;;0.30;0.30;;;31.10;97.80;;;;;;5033675;28;20104;-82
2023/07/21 09:12:35;;;;;;;0.10;0.10;;;31.20;96.80;;;;;;5037562;28;20028;-73
2023/07/21 09:15:10;;;;;;;0.47;0.47;;;31.40;96.40;;;;;;5038755;28;20033;-78
2023/07/21 09:17:41;;;;;;;1.13;1.02;;;31.40;96.50;;;;;;5038834;28;20013;-76
2023/07/21 09:20:09;;;;;;;0.52;0.50;;;29.70;96.00;;;;;;5036749;28;20040;-76
2023/07/21 09:22:35;;;;;;;0.10;0.10;;;31.30;96.70;;;;;;5025267;28;20049;-77
2023/07/21 09:25:00;;;;;;;0.20;0.20;;;31.20;96.20;;;;;;5019152;28;20053;-76
2023/07/21 09:27:26;;;;;;;0.17;0.17;;;31.30;96.30;;;;;;5037872;28;20021;-74
2023/07/21 09:30:03;;;;;;;2.55;1.48;;;31.50;95.80;;;;;;5044919;28;20048;-72
2023/07/21 09:32:39;;;;;;;0.17;0.17;;;31.70;95.10;;;;;;5043783;28;20021;-73
2023/07/21 09:35:05;;;;;;;1.15;1.05;;;31.90;94.40;;;;;;5037831;28;20098;-72
2023/07/21 09:37:33;;;;;;;0.40;0.40;;;32.00;94.00;;;;;;5037931;28;20021;-73
2023/07/21 09:40:10;;;;;;;1.60;0.50;;;32.10;93.30;;;;;;5037946;28;20013;-75
2023/07/21 09:42:38;;;;;;;0.35;0.22;;;32.00;92.70;;;;;;5037755;28;20623;-72
2023/07/21 09:45:04;;;;;;;0.43;0.28;;;32.00;92.80;;;;;;5034585;28;20089;-73
2023/07/21 09:47:30;;;;;;;0.43;0.40;;;32.30;92.80;;;;;;5034808;28;20089;-71
2023/07/21 09:49:58;;;;;;;1.88;1.77;;;32.40;92.10;;;;;;5037492;28;20075;-74
2023/07/21 09:52:26;;;;;;;0.30;0.30;;;32.40;91.50;;;;;;5037461;28;20059;-73
2023/07/21 09:55:10;;;;;;;1.23;0.95;;;32.50;91.20;;;;;;5046217;28;20023;-72
2023/07/21 09:57:42;;;;;;;0.32;0.10;;;32.60;91.20;;;;;;5012343;28;1293913;-77
2023/07/21 10:00:13;;;;;;;0.10;0.10;;;32.60;91.20;;;;;;5058774;28;20012;-81
2023/07/21 10:02:42;;;;;;;0.10;0.10;;;32.50;90.90;;;;;;5059014;28;20020;-79
2023/07/21 10:05:11;;;;;;;0.10;0.10;;;32.60;88.10;;;;;;5044930;28;20024;-73
2023/07/21 10:07:46;;;;;;;0.80;0.80;;;32.60;85.30;;;;;;5037822;28;20021;-74
2023/07/21 10:10:13;;;;;;;1.60;1.50;;;32.60;86.50;;;;;;5039685;28;20017;-74
2023/07/21 10:12:52;;;;;;;0.25;0.25;;;32.30;87.40;;;;;;5037579;28;20021;-73
2023/07/21 10:15:27;;;;;;;0.17;0.17;;;32.50;88.80;;;;;;5038367;28;20025;-75
2023/07/21 10:18:03;;;;;;;0.40;0.40;;;32.80;90.00;;;;;;5038021;28;20025;-77
2023/07/21 10:20:40;;;;;;;0.20;0.10;;;33.00;87.80;;;;;;5026808;28;20094;-75
2023/07/21 10:23:07;;;;;;;0.60;0.47;;;33.20;86.70;;;;;;5018242;28;20018;-74
2023/07/21 10:25:51;;;;;;;0.20;0.20;;;33.40;85.70;;;;;;5018658;28;20029;-74
2023/07/21 10:28:44;;;;;;;0.20;0.20;;;33.40;85.50;;;;;;5027227;28;20041;-74
2023/07/21 10:31:25;;;;;;;0.10;0.10;;;33.40;84.80;;;;;;5036426;28;20021;-75
2023/07/21 10:34:06;;;;;;;2.63;1.70;;;33.50;85.70;;;;;;5038060;28;20025;-72
2023/07/21 10:36:53;;;;;;;0.25;0.25;;;33.60;85.30;;;;;;5038278;28;20021;-72
2023/07/21 10:39:26;;;;;;;1.10;0.95;;;33.70;84.40;;;;;;5029564;28;20273;-75
2023/07/21 10:41:55;;;;;;;0.55;0.55;;;33.90;83.90;;;;;;5026735;28;20017;-72
2023/07/21 10:44:22;;;;;;;0.75;0.68;;;34.00;83.20;;;;;;5027316;28;20079;-74
2023/07/21 10:46:50;;;;;;;0.20;0.20;;;35.60;85.50;;;;;;5025434;28;20474;-73
2023/07/21 10:49:18;;;;;;;0.10;0.10;;;34.20;81.90;;;;;;5028522;28;20033;-80
2023/07/21 10:51:45;;;;;;;0.10;0.10;;;34.30;80.20;;;;;;5024619;28;20567;-77
2023/07/21 10:54:12;;;;;;;0.25;0.25;;;34.90;83.90;;;;;;5018382;28;20676;-73
2023/07/21 10:56:39;;;;;;;0.22;0.20;;;34.60;83.30;;;;;;5017853;28;20092;-82
2023/07/21 10:59:06;;;;;;;0.32;0.15;;;34.60;81.90;;;;;;5020975;28;20033;-74
2023/07/21 11:01:43;;;;;;;0.52;0.52;;;34.80;79.20;;;;;;5031466;28;20678;-76
2023/07/21 11:04:10;;;;;;;0.20;0.20;;;34.90;77.50;;;;;;5040843;28;20024;-77
2023/07/21 11:06:42;;;;;;;0.75;0.73;;;34.90;79.10;;;;;;5056543;28;20509;-73
2023/07/21 11:09:12;;;;;;;1.38;0.50;;;34.90;79.40;;;;;;5053097;28;20593;-73
2023/07/21 11:11:48;;;;;;;4.38;0.80;;;35.10;79.20;;;;;;5025498;28;20021;-75
2023/07/21 11:14:20;;;;;;;1.15;0.43;;;35.20;80.70;;;;;;5018587;28;20533;-77
2023/07/21 11:16:57;;;;;;;0.10;0.10;;;35.40;78.80;;;;;;5025154;28;20021;-73
2023/07/21 11:19:25;;;;;;;0.10;0.10;;;35.80;79.80;;;;;;5033224;28;20667;-73
2023/07/21 11:21:51;;;;;;;0.10;0.10;;;35.40;77.50;;;;;;5028418;28;20086;-79
2023/07/21 11:24:22;;;;;;;2.17;1.00;;;36.60;77.10;;;;;;5034576;28;20025;-74
2023/07/21 11:26:48;;;;;;;3.50;1.38;;;36.90;76.90;;;;;;5027400;28;20021;-74
2023/07/21 11:29:18;;;;;;;3.25;2.42;;;37.20;75.90;;;;;;5037632;28;20510;-76
2023/07/21 11:31:44;;;;;;;1.45;0.38;;;37.20;73.90;;;;;;5037641;28;20514;-73
2023/07/21 11:34:18;;;;;;;5.00;1.60;;;37.00;73.30;;;;;;5037569;28;20036;-73
2023/07/21 11:36:46;;;;;;;0.95;0.95;;;37.00;74.10;;;;;;5018288;28;20221;-74
2023/07/21 11:39:14;;;;;;;1.05;0.40;;;36.90;72.90;;;;;;5017233;28;20033;-78
2023/07/21 11:41:40;;;;;;;0.55;0.32;;;37.20;72.30;;;;;;5027387;28;20010;-77
2023/07/21 11:44:23;;;;;;;1.02;0.93;;;37.20;72.50;;;;;;5028539;28;20108;-77
2023/07/21 11:47:04;;;;;;;0.40;0.40;;;37.20;71.30;;;;;;5023527;28;20692;-79
2023/07/21 11:49:40;;;;;;;2.13;0.77;;;37.00;72.10;;;;;;5018971;28;20061;-74
2023/07/21 11:52:07;;;;;;;0.73;0.73;;;37.00;71.20;;;;;;5034784;28;20028;-75
2023/07/21 11:54:40;;;;;;;0.03;0.03;;;37.10;71.10;;;;;;5035049;28;20183;-72
2023/07/21 11:57:06;;;;;;;0.63;0.45;;;37.10;70.20;;;;;;5036754;28;20287;-79
2023/07/21 11:59:33;;;;;;;0.98;0.57;;;37.20;69.10;;;;;;5035247;28;20060;-74
2023/07/21 12:01:59;;;;;;;0.35;0.20;;;37.30;68.80;;;;;;5037025;28;20025;-73
2023/07/21 12:04:25;;;;;;;0.10;0.10;;;37.40;67.60;;;;;;5037105;28;20014;-73
2023/07/21 12:06:52;;;;;;;1.17;1.15;;;37.40;68.40;;;;;;5037113;28;20021;-72
2023/07/21 12:09:19;;;;;;;4.43;0.47;;;37.90;67.50;;;;;;5034644;28;20051;-77
2023/07/21 12:11:46;;;;;;;0.10;0.10;;;37.90;67.00;;;;;;5035703;28;20040;-73
2023/07/21 12:14:11;;;;;;;1.52;1.13;;;37.90;66.70;;;;;;5022644;28;20036;-73
2023/07/21 12:16:38;;;;;;;1.80;1.70;;;38.00;67.00;;;;;;5048976;28;20025;-74
2023/07/21 12:19:04;;;;;;;3.10;1.10;;;38.30;67.40;;;;;;5047464;28;20814;-75
2023/07/21 12:21:30;;;;;;;1.45;1.00;;;38.90;65.40;;;;;;5038277;28;20091;-77
2023/07/21 12:23:57;;;;;;;0.40;0.40;;;39.30;64.00;;;;;;5034140;28;20025;-74
2023/07/21 12:26:23;;;;;;;0.40;0.40;;;39.60;65.00;;;;;;5029483;28;20036;-74
2023/07/21 12:28:52;;;;;;;0.20;0.20;;;39.60;65.00;;;;;;5036468;28;20034;-72
2023/07/21 12:31:18;;;;;;;3.10;1.88;;;39.40;62.40;;;;;;5034736;28;20691;-76
2023/07/21 12:33:45;;;;;;;1.00;0.90;;;39.20;63.50;;;;;;5036282;28;20037;-73
2023/07/21 12:36:12;;;;;;;0.25;0.25;;;38.60;62.20;;;;;;5032082;28;20021;-79
2023/07/21 12:38:38;;;;;;;0.82;0.40;;;38.70;63.40;;;;;;5038199;28;20035;-76
2023/07/21 12:41:04;;;;;;;3.47;0.98;;;38.50;63.30;;;;;;5052136;28;20016;-72
2023/07/21 12:43:30;;;;;;;0.40;0.40;;;38.40;63.10;;;;;;5042434;28;20487;-72
2023/07/21 12:45:56;;;;;;;4.85;2.70;;;38.70;63.00;;;;;;5036122;28;20024;-72
2023/07/21 12:48:21;;;;;;;0.28;0.28;;;39.30;62.50;;;;;;5035988;28;20767;-74
2023/07/21 12:50:47;;;;;;;0.68;0.68;;;39.40;62.00;;;;;;5037317;28;20043;-74